Huvudsida
METAR-TAF:

METAR-TAF

Flygplatser :

Stockholm-Bromma flygplats

Stockholm, Sverige

latitud: 59-21N, longitud: 017-57E, höjd: 14 m

Aktuellt väderrapport

Denna rapport gjordes för 35 minuter sedan, klockan 16:20 UTC
Vind 4 kt från ost
Temperatur 16°C
Fuktighet 82%
Tryck 1013 hPa
Sikt 10 km eller mer
Spridda moln på en höjd av 2300 ft

METAR: ESSB 071620Z 08004KT 9999 SCT023 16/13 Q1013

Tid: 18:55 (16:55 UTC)

Väderprognos

Denna rapport gjordes för 2 timmar och 25 minuter sedan, klockan 14:30 UTC
Prognos gäller från 07 kl. 15 UTC till 07 kl. 21 UTC
Vind 5 kt från ost/nordost
Sikt 10 km eller mer
Spridda moln på en höjd av 900 ft
Brutna moln på en höjd av 4500 ft

TAF: ESSB 071430Z 0715/0721 06005KT 9999 SCT009 BKN045

Aktuella väderrapporter och prognoser från 4000 flygplatser (METAR- och TAF-rapporter).

De tillgängliga stationerna syns som gula och röda prickar på kartan.

För musen över prickarna för att se namnen på stationerna.

Klicka sedan för att få väderrapporter och prognoser.

För att ändra kartan: Klicka på de gröna knapparna med ett svart kors på för att zooma in; den gröna knappen med ett streck på för att zooma ut; eller på de gröna pilarna för angränsande kartor.


METAR-TAF: